Time;durP1;ratioP1;P1;durP2;ratioP2;P2;SDS_P1;SDS_P2;PMS_P1;PMS_P2;Temp;Humidity;BMP_temperature;BMP_pressure;BME280_temperature;BME280_humidity;BME280_pressure;Samples;Min_cycle;Max_cycle;Signal;HPM_P1;HPM_P2
2022/01/01 00:37:52;;;;;;;13.25;9.10;;;;;;;10.25;100.00;102381.22;6243291;22;20352;-87
2022/01/01 00:40:30;;;;;;;10.45;9.40;;;;;;;10.30;100.00;102390.00;6248350;23;20425;-86
2022/01/01 00:42:55;;;;;;;19.65;12.32;;;;;;;10.23;100.00;102395.41;6247221;23;20436;-88
2022/01/01 00:45:35;;;;;;;17.40;11.85;;;;;;;10.17;100.00;102390.19;6248253;23;20008;-86
2022/01/01 00:48:01;;;;;;;14.55;9.77;;;;;;;10.16;100.00;102393.78;6247472;23;20004;-87
2022/01/01 00:50:36;;;;;;;12.60;9.40;;;;;;;10.05;100.00;102398.34;6248115;23;20431;-86
2022/01/01 00:53:02;;;;;;;15.15;8.50;;;;;;;10.14;100.00;102400.88;6247883;23;20020;-86
2022/01/01 00:55:42;;;;;;;19.70;9.25;;;;;;;10.20;100.00;102395.47;6248128;23;20000;-86
2022/01/01 00:58:08;;;;;;;13.27;9.77;;;;;;;10.13;100.00;102394.69;6248361;23;20004;-87
2022/01/01 01:00:42;;;;;;;12.77;9.05;;;;;;;10.11;100.00;102408.88;6248299;23;20008;-86
2022/01/01 01:03:12;;;;;;;10.65;6.25;;;;;;;10.23;100.00;102420.19;6249196;22;20332;-86
2022/01/01 01:05:47;;;;;;;11.45;8.50;;;;;;;10.32;100.00;102433.31;6248540;23;20008;-88
2022/01/01 01:08:17;;;;;;;10.07;6.82;;;;;;;10.39;100.00;102436.75;6251422;23;20016;-87
2022/01/01 01:10:58;;;;;;;11.50;7.97;;;;;;;10.53;100.00;102440.03;6224723;23;20007;-87
2022/01/01 01:13:26;;;;;;;13.43;6.32;;;;;;;10.59;100.00;102435.50;6249954;23;20387;-86
2022/01/01 01:16:01;;;;;;;9.18;5.68;;;;;;;10.71;100.00;102435.28;6248182;23;20000;-86
2022/01/01 01:18:27;;;;;;;9.85;5.50;;;;;;;10.86;100.00;102434.13;6249243;23;20058;-87
2022/01/01 01:20:53;;;;;;;7.05;5.85;;;;;;;10.95;100.00;102433.09;6249234;23;20008;-85
2022/01/01 01:23:18;;;;;;;11.55;3.80;;;;;;;10.98;100.00;102433.91;6249643;23;19996;-87
2022/01/01 01:25:44;;;;;;;9.52;4.55;;;;;;;11.07;100.00;102444.38;6248508;23;20047;-87
2022/01/01 01:28:13;;;;;;;4.28;3.00;;;;;;;11.15;100.00;102433.56;6248164;23;20010;-87
2022/01/01 01:30:39;;;;;;;5.32;4.40;;;;;;;11.21;100.00;102444.09;6248543;22;20004;-88
2022/01/01 01:33:06;;;;;;;7.85;3.65;;;;;;;11.23;100.00;102436.97;6248974;23;20023;-86
2022/01/01 01:35:32;;;;;;;6.53;3.17;;;;;;;11.28;100.00;102441.28;6247993;23;20079;-86
2022/01/01 01:38:01;;;;;;;7.80;3.20;;;;;;;11.36;100.00;102439.31;6249012;23;20028;-86
2022/01/01 01:40:27;;;;;;;5.22;4.55;;;;;;;11.38;100.00;102440.19;6249037;23;20008;-86
2022/01/01 01:42:52;;;;;;;6.20;2.67;;;;;;;11.37;100.00;102432.22;6248983;23;20002;-86
2022/01/01 01:45:28;;;;;;;4.80;3.42;;;;;;;11.49;100.00;102426.66;6248721;23;20031;-86
2022/01/01 01:47:53;;;;;;;3.70;2.97;;;;;;;11.52;100.00;102411.50;6248689;23;20000;-87
2022/01/01 01:50:25;;;;;;;2.78;2.08;;;;;;;11.48;100.00;102407.16;6248708;23;20008;-86
2022/01/01 01:52:55;;;;;;;3.92;2.95;;;;;;;11.54;100.00;102408.81;6248762;23;20363;-86
2022/01/01 01:55:30;;;;;;;7.97;4.07;;;;;;;11.62;100.00;102406.84;6249076;23;20138;-87
2022/01/01 01:57:57;;;;;;;4.95;2.97;;;;;;;11.57;100.00;102396.31;6248515;23;20079;-87
2022/01/01 02:03:21;;;;;;;4.78;2.35;;;;;;;11.59;100.00;102397.16;6249082;22;20085;-86
2022/01/01 02:05:48;;;;;;;3.92;2.28;;;;;;;11.60;100.00;102385.59;6248339;23;20008;-87
2022/01/01 02:08:14;;;;;;;1.77;1.33;;;;;;;11.63;100.00;102387.38;6249656;23;20008;-87
2022/01/01 02:10:40;;;;;;;4.05;3.38;;;;;;;11.59;100.00;102391.84;6224274;23;20004;-87
2022/01/01 02:13:18;;;;;;;4.88;4.07;;;;;;;11.53;100.00;102375.13;6249914;23;20012;-87
2022/01/01 02:16:11;;;;;;;9.63;3.35;;;;;;;11.57;100.00;102375.03;6250665;23;20062;-87
2022/01/01 02:18:32;;;;;;;5.65;3.72;;;;;;;11.47;100.00;102370.81;6250400;23;20010;-86
2022/01/01 02:21:06;;;;;;;7.10;4.97;;;;;;;11.51;100.00;102372.50;6250367;23;20446;-86
2022/01/01 02:23:33;;;;;;;5.20;3.15;;;;;;;11.50;100.00;102360.13;6251513;23;20061;-85
2022/01/01 02:25:58;;;;;;;14.98;3.75;;;;;;;11.53;100.00;102360.06;6250588;23;20083;-85
2022/01/01 02:28:24;;;;;;;8.48;4.50;;;;;;;11.46;100.00;102354.88;6250725;23;20359;-86
2022/01/01 02:30:50;;;;;;;7.63;3.25;;;;;;;11.48;100.00;102361.94;6249266;23;20062;-86
2022/01/01 02:33:16;;;;;;;5.25;3.75;;;;;;;11.50;100.00;102357.47;6250102;23;20063;-86
2022/01/01 02:35:41;;;;;;;10.93;5.03;;;;;;;11.50;100.00;102365.44;6250450;23;20053;-86
2022/01/01 02:38:07;;;;;;;8.18;4.15;;;;;;;11.56;100.00;102369.75;6250392;23;20058;-85
2022/01/01 02:40:35;;;;;;;4.72;3.80;;;;;;;11.59;100.00;102367.88;6250239;23;20011;-85
2022/01/01 02:43:00;;;;;;;11.77;4.78;;;;;;;11.75;100.00;102369.34;6252194;23;20000;-85
2022/01/01 02:45:30;;;;;;;9.57;4.03;;;;;;;11.72;100.00;102368.53;6252066;23;20004;-86
2022/01/01 02:47:56;;;;;;;6.07;3.42;;;;;;;11.70;100.00;102373.88;6252754;23;20008;-85
2022/01/01 02:50:21;;;;;;;7.50;4.32;;;;;;;11.62;100.00;102370.47;6252218;23;20367;-85
2022/01/01 02:52:49;;;;;;;5.00;3.35;;;;;;;11.61;100.00;102374.03;6251388;23;20000;-85
2022/01/01 02:55:15;;;;;;;5.20;4.22;;;;;;;11.52;100.00;102378.72;6250899;23;20022;-85
2022/01/01 03:00:06;;;;;;;13.32;5.75;;;;;;;11.62;100.00;102375.81;6250331;22;20020;-86
2022/01/01 03:02:32;;;;;;;12.07;5.65;;;;;;;11.66;100.00;102374.84;6251111;23;20060;-85
2022/01/01 03:04:57;;;;;;;9.95;4.90;;;;;;;11.58;100.00;102370.59;6251941;23;20004;-86
2022/01/01 03:07:22;;;;;;;6.82;3.83;;;;;;;11.52;100.00;102371.59;6251585;23;20004;-86
2022/01/01 03:09:48;;;;;;;7.45;3.78;;;;;;;11.52;100.00;102363.59;6248560;23;20009;-85
2022/01/01 03:12:16;;;;;;;6.22;4.05;;;;;;;11.47;100.00;102370.81;6250389;23;20000;-86
2022/01/01 03:14:42;;;;;;;9.65;5.18;;;;;;;11.42;100.00;102370.06;6250472;23;20420;-85
2022/01/01 03:17:08;;;;;;;9.52;4.28;;;;;;;11.50;100.00;102361.91;6250264;23;20003;-86
2022/01/01 03:19:33;;;;;;;6.97;3.33;;;;;;;11.45;100.00;102362.00;6249679;23;20379;-86
2022/01/01 03:22:00;;;;;;;4.65;3.60;;;;;;;11.43;100.00;102361.16;6250220;23;19996;-86
2022/01/01 03:24:26;;;;;;;6.07;3.72;;;;;;;11.42;100.00;102361.19;6249745;23;20057;-86
2022/01/01 03:26:51;;;;;;;6.28;3.58;;;;;;;11.44;100.00;102354.91;6250408;23;20087;-86
2022/01/01 03:29:17;;;;;;;5.55;3.72;;;;;;;11.40;100.00;102353.25;6250540;23;20093;-86
2022/01/01 03:31:42;;;;;;;5.93;3.05;;;;;;;11.31;100.00;102350.78;6250267;22;20036;-86
2022/01/01 03:34:07;;;;;;;10.60;4.03;;;;;;;11.37;100.00;102355.97;6250264;23;20004;-86
2022/01/01 03:36:33;;;;;;;4.63;2.78;;;;;;;11.31;100.00;102347.25;6249969;23;20091;-85
2022/01/01 03:38:59;;;;;;;4.55;3.30;;;;;;;11.23;100.00;102344.75;6250468;23;20008;-86
2022/01/01 03:41:26;;;;;;;5.85;4.07;;;;;;;11.07;100.00;102342.44;6251430;23;20004;-86
2022/01/01 03:43:52;;;;;;;6.18;3.58;;;;;;;10.99;100.00;102337.28;6249467;23;20175;-86
2022/01/01 03:46:17;;;;;;;3.95;2.78;;;;;;;10.98;100.00;102338.22;6249549;23;20082;-86
2022/01/01 03:48:44;;;;;;;5.35;2.65;;;;;;;10.89;100.00;102346.34;6249696;22;20044;-86
2022/01/01 03:51:10;;;;;;;5.25;3.80;;;;;;;10.87;100.00;102344.63;6250147;23;20008;-86
2022/01/01 03:53:35;;;;;;;5.03;4.07;;;;;;;10.87;100.00;102345.53;6250415;23;20298;-86
2022/01/01 03:56:01;;;;;;;4.22;3.13;;;;;;;10.83;100.00;102350.03;6250124;23;20099;-86
2022/01/01 03:58:26;;;;;;;8.02;2.35;;;;;;;10.83;100.00;102354.44;6250369;23;20008;-86
2022/01/01 04:00:52;;;;;;;10.63;3.65;;;;;;;10.82;100.00;102358.03;6249791;23;20082;-86
2022/01/01 04:03:17;;;;;;;9.10;3.92;;;;;;;10.72;100.00;102356.44;6249827;22;20004;-86
2022/01/01 04:05:44;;;;;;;4.22;3.83;;;;;;;10.67;100.00;102360.97;6249676;23;20008;-86
2022/01/01 04:08:11;;;;;;;4.45;1.95;;;;;;;10.65;100.00;102360.13;6250062;23;20022;-85
2022/01/01 04:10:37;;;;;;;5.35;3.42;;;;;;;10.68;100.00;102362.72;6250208;23;20332;-87
2022/01/01 04:13:04;;;;;;;3.78;3.00;;;;;;;10.70;100.00;102364.44;6249625;23;20016;-86
2022/01/01 04:15:30;;;;;;;3.53;2.30;;;;;;;10.87;100.00;102365.91;6251134;23;20009;-86
2022/01/01 04:17:59;;;;;;;7.38;3.75;;;;;;;10.82;100.00;102368.66;6250092;23;20005;-87
2022/01/01 04:20:25;;;;;;;5.63;3.67;;;;;;;10.91;100.00;102365.81;6249662;23;19999;-86
2022/01/01 04:22:55;;;;;;;3.88;2.42;;;;;;;10.87;100.00;102372.09;6249216;23;20024;-86
2022/01/01 04:25:22;;;;;;;5.20;3.67;;;;;;;10.91;100.00;102362.25;6250368;23;20028;-86
2022/01/01 04:27:48;;;;;;;3.63;2.03;;;;;;;11.03;100.00;102360.22;6249342;23;20000;-87
2022/01/01 04:30:14;;;;;;;6.20;3.22;;;;;;;10.94;100.00;102370.19;6249390;23;20011;-86
2022/01/01 04:32:40;;;;;;;5.88;2.60;;;;;;;10.97;100.00;102363.03;6249895;23;20000;-87
2022/01/01 04:35:06;;;;;;;5.47;3.00;;;;;;;11.03;100.00;102364.69;6249563;23;20000;-87
2022/01/01 04:37:31;;;;;;;4.38;2.17;;;;;;;11.02;100.00;102378.88;6250576;23;20437;-88
2022/01/01 04:39:59;;;;;;;7.28;3.85;;;;;;;10.99;100.00;102366.53;6249555;23;20011;-87
2022/01/01 04:42:25;;;;;;;7.65;2.65;;;;;;;11.07;100.00;102379.66;6250175;23;20024;-87
2022/01/01 04:44:51;;;;;;;5.75;3.40;;;;;;;11.06;100.00;102383.25;6248027;23;20343;-88
2022/01/01 04:47:17;;;;;;;4.63;2.67;;;;;;;11.07;100.00;102380.56;6249455;23;20004;-87
2022/01/01 04:49:42;;;;;;;5.25;2.42;;;;;;;11.01;100.00;102379.78;6249555;23;20014;-87
2022/01/01 04:52:08;;;;;;;4.18;2.60;;;;;;;11.07;100.00;102375.22;6249574;23;20000;-87
2022/01/01 04:54:38;;;;;;;6.95;2.42;;;;;;;11.00;100.00;102370.94;6250006;22;20103;-87
2022/01/01 04:57:03;;;;;;;;;;;;;;;11.01;100.00;102383.34;6250877;23;20008;-87
2022/01/01 04:59:28;;;;;;;4.80;3.05;;;;;;;10.92;100.00;102380.84;6248319;23;20213;-87
2022/01/01 05:01:54;;;;;;;5.90;2.33;;;;;;;11.05;100.00;102382.34;6249588;23;20031;-86
2022/01/01 05:04:19;;;;;;;4.60;3.15;;;;;;;10.93;100.00;102373.75;6252679;23;20004;-86
2022/01/01 05:06:49;;;;;;;4.03;1.67;;;;;;;11.04;100.00;102375.31;6250447;23;20092;-87
2022/01/01 05:09:16;;;;;;;4.38;1.88;;;;;;;10.97;100.00;102380.78;6249119;23;20000;-86
2022/01/01 05:11:42;;;;;;;3.42;2.17;;;;;;;10.93;100.00;102363.13;6249630;23;20011;-87
2022/01/01 05:14:08;;;;;;;4.32;1.80;;;;;;;11.04;100.00;102363.78;6249850;23;20012;-86
2022/01/01 05:16:33;;;;;;;4.43;2.35;;;;;;;11.07;100.00;102358.41;6249851;23;20024;-86
2022/01/01 05:18:59;;;;;;;6.72;3.50;;;;;;;11.01;100.00;102363.84;6250050;23;19996;-87
2022/01/01 05:21:24;;;;;;;5.45;2.22;;;;;;;11.02;100.00;102362.94;6250105;23;20001;-86
2022/01/01 05:23:50;;;;;;;4.15;2.15;;;;;;;11.23;100.00;102360.72;6222897;23;20447;-87
2022/01/01 05:26:15;;;;;;;2.30;1.67;;;;;;;11.02;100.00;102355.84;6251798;23;20035;-87
2022/01/01 05:28:41;;;;;;;4.20;1.70;;;;;;;11.06;100.00;102356.66;6255402;23;20016;-86
2022/01/01 05:31:06;;;;;;;2.60;1.60;;;;;;;10.96;100.00;102353.31;6256657;22;20420;-86
2022/01/01 05:33:31;;;;;;;2.00;1.52;;;;;;;10.94;100.00;102343.59;6257987;23;20417;-87
2022/01/01 05:35:57;;;;;;;6.63;2.50;;;;;;;10.92;100.00;102348.94;6256793;23;20342;-87
2022/01/01 05:38:22;;;;;;;3.55;1.63;;;;;;;10.82;100.00;102347.41;6259465;23;20039;-86
2022/01/01 05:40:47;;;;;;;4.82;2.33;;;;;;;10.90;100.00;102337.50;6257926;22;20044;-87
2022/01/01 05:43:13;;;;;;;4.70;1.88;;;;;;;10.89;100.00;102316.25;6256826;22;20014;-86
2022/01/01 05:45:42;;;;;;;2.50;1.27;;;;;;;11.01;100.00;102308.91;6259492;23;20004;-87
2022/01/01 05:48:08;;;;;;;2.50;1.60;;;;;;;10.98;100.00;102316.06;6262953;23;20134;-87
2022/01/01 05:50:34;;;;;;;3.67;1.42;;;;;;;11.02;100.00;102326.59;6258932;22;20004;-87
2022/01/01 05:53:00;;;;;;;3.10;2.10;;;;;;;11.16;100.00;102323.63;6253383;23;20066;-87
2022/01/01 05:55:25;;;;;;;3.08;1.30;;;;;;;11.14;100.00;102334.28;6250776;23;20015;-87
2022/01/01 05:57:51;;;;;;;2.50;1.48;;;;;;;11.16;100.00;102318.31;6249677;23;20004;-87
2022/01/01 06:00:16;;;;;;;2.53;1.83;;;;;;;11.21;100.00;102319.09;6248827;23;20004;-86
2022/01/01 06:02:43;;;;;;;2.40;1.65;;;;;;;11.12;100.00;102333.47;6249303;23;20079;-86
2022/01/01 06:05:09;;;;;;;2.70;1.50;;;;;;;11.26;100.00;102334.06;6249436;23;20000;-86
2022/01/01 06:07:34;;;;;;;4.18;1.80;;;;;;;11.27;100.00;102335.78;6249514;23;20015;-87
2022/01/01 06:10:00;;;;;;;2.25;1.30;;;;;;;11.38;100.00;102343.53;6247790;23;20083;-87
2022/01/01 06:12:26;;;;;;;2.00;1.35;;;;;;;11.42;100.00;102334.59;6248620;23;20005;-87
2022/01/01 06:14:52;;;;;;;4.18;2.22;;;;;;;11.45;100.00;102334.50;6248905;23;20074;-86
2022/01/01 06:17:17;;;;;;;1.77;1.20;;;;;;;11.55;100.00;102339.59;6249129;23;20004;-87
2022/01/01 06:19:43;;;;;;;3.67;1.55;;;;;;;11.51;100.00;102343.25;6248742;23;20000;-86
2022/01/01 06:22:08;;;;;;;3.08;1.35;;;;;;;11.48;100.00;102339.75;6249000;23;20404;-87
2022/01/01 06:24:33;;;;;;;2.65;1.88;;;;;;;11.47;100.00;102333.56;6248467;23;20001;-88
2022/01/01 06:26:59;;;;;;;4.15;2.15;;;;;;;11.44;100.00;102333.63;6248739;22;20019;-87
2022/01/01 06:29:24;;;;;;;5.43;1.80;;;;;;;11.48;100.00;102340.66;6248572;23;19996;-87
2022/01/01 06:31:49;;;;;;;14.25;1.42;;;;;;;11.52;100.00;102334.34;6248888;23;20136;-87
2022/01/01 06:34:21;;;;;;;1.73;1.48;;;;;;;11.51;100.00;102340.56;6247922;23;20000;-87
2022/01/01 06:36:47;;;;;;;1.60;0.90;;;;;;;11.53;100.00;102345.88;6248963;23;20008;-83
2022/01/01 06:39:12;;;;;;;1.92;1.35;;;;;;;11.55;100.00;102341.38;6250850;23;20032;-83
2022/01/01 06:41:38;;;;;;;1.67;1.30;;;;;;;11.56;100.00;102345.78;6250106;23;20007;-83
2022/01/01 06:44:03;;;;;;;1.88;1.30;;;;;;;11.48;100.00;102340.66;6248408;23;20015;-83
2022/01/01 06:46:29;;;;;;;4.07;0.98;;;;;;;11.48;100.00;102339.75;6247265;23;20054;-84
2022/01/01 06:48:54;;;;;;;2.47;1.33;;;;;;;11.51;100.00;102337.91;6220633;23;20004;-84
2022/01/01 06:51:19;;;;;;;1.63;1.27;;;;;;;11.46;100.00;102337.13;6247914;23;19996;-84
2022/01/01 06:53:45;;;;;;;1.98;1.33;;;;;;;11.39;100.00;102334.66;6221100;23;20004;-84
2022/01/01 06:56:10;;;;;;;4.88;1.95;;;;;;;11.37;100.00;102334.69;6249596;23;20011;-84
2022/01/01 06:58:37;;;;;;;3.63;2.67;;;;;;;11.46;100.00;102326.50;6250238;23;20028;-84
2022/01/01 07:01:03;;;;;;;3.20;1.40;;;;;;;11.43;100.00;102326.56;6250504;23;20004;-84
2022/01/01 07:03:29;;;;;;;2.95;1.35;;;;;;;11.40;100.00;102323.97;6251075;23;20064;-83
2022/01/01 07:05:55;;;;;;;5.28;1.75;;;;;;;11.40;100.00;102325.75;6248756;23;20012;-83
2022/01/01 07:08:21;;;;;;;3.85;1.60;;;;;;;11.45;100.00;102335.41;6250142;23;20000;-83
2022/01/01 07:10:46;;;;;;;5.20;2.08;;;;;;;11.39;100.00;102329.34;6249616;23;20042;-83
2022/01/01 07:13:15;;;;;;;2.33;1.67;;;;;;;11.43;100.00;102331.88;6249891;23;20031;-83
2022/01/01 07:15:40;;;;;;;1.65;1.20;;;;;;;11.42;100.00;102337.25;6250124;23;20004;-83
2022/01/01 07:18:06;;;;;;;3.03;1.33;;;;;;;11.34;100.00;102328.56;6248892;23;20023;-83
2022/01/01 07:20:31;;;;;;;3.03;1.63;;;;;;;11.35;100.00;102328.53;6249467;23;20012;-84
2022/01/01 07:22:57;;;;;;;1.65;1.38;;;;;;;11.31;100.00;102326.84;6248952;23;20428;-83
2022/01/01 07:25:22;;;;;;;7.82;1.40;;;;;;;11.36;100.00;102330.25;6249878;23;20012;-84
2022/01/01 07:27:48;;;;;;;3.35;1.77;;;;;;;11.32;100.00;102333.91;6249838;23;20084;-83
2022/01/01 07:30:13;;;;;;;1.75;1.05;;;;;;;11.32;100.00;102344.56;6249231;23;19996;-83
2022/01/01 07:32:40;;;;;;;5.82;2.17;;;;;;;11.25;100.00;102348.25;6249674;23;20030;-83
2022/01/01 07:35:07;;;;;;;3.60;1.75;;;;;;;11.32;100.00;102341.91;6249737;23;20420;-82
2022/01/01 07:37:32;;;;;;;8.85;1.52;;;;;;;11.25;100.00;102348.25;6249767;23;20131;-84
2022/01/01 07:39:57;;;;;;;3.60;1.45;;;;;;;11.33;100.00;102348.09;6249316;23;20083;-83
2022/01/01 07:42:23;;;;;;;2.70;1.50;;;;;;;11.24;100.00;102356.25;6249213;23;20010;-84
2022/01/01 07:44:48;;;;;;;4.68;2.35;;;;;;;11.26;100.00;102349.13;6249418;23;20014;-83
2022/01/01 07:47:14;;;;;;;2.75;1.85;;;;;;;11.24;100.00;102357.13;6249602;23;20004;-83
2022/01/01 07:49:39;;;;;;;6.35;2.20;;;;;;;11.42;100.00;102361.19;6249322;23;20011;-82
2022/01/01 07:52:05;;;;;;;4.07;1.67;;;;;;;11.28;100.00;102356.19;6249076;23;20004;-83
2022/01/01 07:54:30;;;;;;;1.30;1.10;;;;;;;11.28;100.00;102348.19;6248959;23;20011;-83
2022/01/01 07:56:56;;;;;;;7.78;1.50;;;;;;;11.26;100.00;102350.00;6247107;23;20008;-83
2022/01/01 07:59:21;;;;;;;4.25;1.77;;;;;;;11.29;100.00;102355.25;6250298;23;20016;-94
2022/01/01 08:01:54;;;;;;;1.38;0.80;;;;;;;11.35;100.00;102352.47;6256207;23;20076;-93
2022/01/01 10:44:33;;;;;;;6.38;2.97;;;;;;;11.77;100.00;102268.16;6242989;22;20028;-88
2022/01/01 10:47:05;;;;;;;4.53;3.10;;;;;;;12.01;100.00;102263.06;6250662;23;20008;-88
2022/01/01 10:52:13;;;;;;;9.98;4.82;;;;;;;12.04;100.00;102257.66;6250548;23;20023;-88
2022/01/01 10:54:46;;;;;;;5.68;3.67;;;;;;;12.22;100.00;102254.50;6223618;23;20008;-88
2022/01/01 10:57:12;;;;;;;5.15;3.67;;;;;;;12.42;100.00;102255.75;6250562;23;20089;-89
2022/01/01 10:59:38;;;;;;;10.00;4.07;;;;;;;12.41;100.00;102260.19;6222440;23;20005;-88
2022/01/01 11:02:07;;;;;;;9.82;3.45;;;;;;;12.18;100.00;102263.47;6250713;23;20030;-88
2022/01/01 11:04:36;;;;;;;4.95;3.53;;;;;;;12.38;100.00;102246.97;6251452;23;20078;-88
2022/01/01 11:07:02;;;;;;;7.03;3.90;;;;;;;12.25;100.00;102245.56;6250240;23;20111;-87
2022/01/01 11:09:29;;;;;;;4.55;2.65;;;;;;;12.41;100.00;102252.22;6250265;23;20023;-87
2022/01/01 11:12:02;;;;;;;6.07;3.20;;;;;;;12.41;100.00;102251.31;6251074;23;20057;-89
2022/01/01 11:14:31;;;;;;;5.03;3.58;;;;;;;12.59;100.00;102242.81;6249692;23;20011;-88
2022/01/01 11:16:58;;;;;;;6.32;4.15;;;;;;;12.74;100.00;102247.69;6249097;23;20012;-87
2022/01/01 11:19:24;;;;;;;5.47;3.53;;;;;;;12.84;100.00;102252.75;6249800;23;20042;-86
2022/01/01 11:21:52;;;;;;;4.80;3.53;;;;;;;12.95;100.00;102229.25;6249839;23;20462;-87
2022/01/01 11:24:18;;;;;;;6.90;3.63;;;;;;;12.98;100.00;102228.31;6250054;23;20294;-89
2022/01/01 11:26:44;;;;;;;6.15;3.03;;;;;;;13.04;100.00;102218.38;6248960;23;20011;-88
2022/01/01 11:29:13;;;;;;;6.25;3.70;;;;;;;12.94;100.00;102206.19;6249395;23;20363;-87
2022/01/01 11:31:40;;;;;;;6.05;3.30;;;;;;;12.86;100.00;102208.22;6249340;23;20000;-88
2022/01/01 11:34:09;;;;;;;5.75;3.00;;;;;;;12.67;100.00;102190.16;6249777;23;20011;-87
2022/01/01 11:36:35;;;;;;;4.93;3.17;;;;;;;12.64;100.00;102190.25;6248536;23;20008;-87
2022/01/01 11:39:11;;;;;;;7.28;4.47;;;;;;;12.62;100.00;102192.09;6249120;23;20004;-88
2022/01/01 11:41:54;;;;;;;6.10;3.45;;;;;;;12.56;100.00;102192.28;6248908;23;20388;-88
2022/01/01 11:44:29;;;;;;;13.10;4.55;;;;;;;12.52;100.00;102199.47;6249244;23;20008;-88
2022/01/01 11:47:00;;;;;;;4.25;2.88;;;;;;;12.64;100.00;102203.59;6249837;23;20008;-87
2022/01/01 11:49:28;;;;;;;7.28;3.45;;;;;;;12.71;100.00;102198.03;6250498;23;20058;-88
2022/01/01 11:51:55;;;;;;;7.97;3.53;;;;;;;12.91;100.00;102205.41;6248093;23;20000;-88
2022/01/01 11:54:25;;;;;;;4.50;3.30;;;;;;;12.94;100.00;102197.31;6248437;23;20007;-88
2022/01/01 11:56:50;;;;;;;5.40;3.45;;;;;;;12.86;100.00;102199.38;6249090;23;20050;-88
2022/01/01 11:59:23;;;;;;;7.65;3.92;;;;;;;12.87;100.00;102199.31;6249053;23;20004;-88
2022/01/01 12:01:51;;;;;;;4.72;2.80;;;;;;;12.84;100.00;102217.19;6248563;23;19996;-89
2022/01/01 12:04:42;;;;;;;5.80;2.95;;;;;;;12.73;100.00;102209.53;6248478;23;20306;-88
2022/01/01 12:07:32;;;;;;;5.07;3.22;;;;;;;12.63;100.00;102197.38;6251525;22;20035;-89
2022/01/01 12:10:07;;;;;;;3.22;2.60;;;;;;;12.85;100.00;102178.94;6248809;23;20004;-88
2022/01/01 12:12:51;;;;;;;6.78;2.83;;;;;;;13.22;100.00;102180.41;6249839;23;20067;-86
2022/01/01 12:15:48;;;;;;;6.35;3.17;;;;;;;13.06;100.00;102180.97;6248049;23;20502;-92
2022/01/01 12:18:33;;;;;;;4.15;2.70;;;;;;;13.19;100.00;102182.34;6250304;22;20008;-91
2022/01/01 12:21:03;;;;;;;4.97;2.67;;;;;;;13.24;100.00;102185.72;6219200;22;19997;-91
2022/01/01 12:23:30;;;;;;;5.05;2.55;;;;;;;13.49;100.00;102184.84;6220015;23;20013;-93
2022/01/01 12:26:08;;;;;;;5.50;2.95;;;;;;;13.21;100.00;102173.34;6218991;23;20004;-85
2022/01/01 12:28:59;;;;;;;4.03;2.65;;;;;;;13.16;100.00;102169.06;6191753;23;20329;-80
2022/01/01 12:31:24;;;;;;;10.73;2.42;;;;;;;13.17;100.00;102149.50;6218680;23;20036;-79
2022/01/01 12:37:15;;;;;;;2.17;1.42;;;;;;;13.20;100.00;102138.72;6218301;23;20019;-80
2022/01/01 12:39:58;;;;;;;5.30;2.30;;;;;;;13.13;100.00;102132.72;6218010;23;20441;-82
2022/01/01 12:42:49;;;;;;;1.83;1.17;;;;;;;13.27;100.00;102151.81;6217472;23;20055;-81
2022/01/01 12:45:15;;;;;;;3.28;1.38;;;;;;;13.25;100.00;102148.31;6217625;23;20012;-80
2022/01/01 12:47:43;;;;;;;3.35;1.95;;;;;;;13.38;100.00;102138.97;6218635;22;20080;-83
2022/01/01 12:50:09;;;;;;;3.17;1.55;;;;;;;13.43;100.00;102130.81;6218687;23;20009;-81
2022/01/01 12:52:34;;;;;;;2.35;1.40;;;;;;;13.42;100.00;102132.63;6217842;23;20004;-79
2022/01/01 12:55:06;;;;;;;2.22;1.15;;;;;;;13.75;100.00;102138.59;6217851;23;20005;-79
2022/01/01 12:57:37;;;;;;;2.58;1.13;;;;;;;13.67;100.00;102136.19;6217435;23;20011;-78
2022/01/01 13:00:22;;;;;;;2.15;1.40;;;;;;;13.70;100.00;102132.53;6215715;23;20000;-78
2022/01/01 13:02:47;;;;;;;3.83;2.15;;;;;;;13.42;100.00;102137.97;6216375;23;20005;-78
2022/01/01 13:05:15;;;;;;;3.47;2.38;;;;;;;13.39;100.00;102135.38;6216945;23;20000;-78
2022/01/01 13:07:40;;;;;;;3.70;1.52;;;;;;;13.40;100.00;102138.91;6188851;23;20012;-78
2022/01/01 13:10:06;;;;;;;3.97;2.38;;;;;;;13.33;100.00;102114.22;6215157;23;20008;-78
2022/01/01 13:12:32;;;;;;;4.93;1.60;;;;;;;13.20;100.00;102112.94;6217170;23;20409;-79
2022/01/01 13:14:57;;;;;;;2.33;1.23;;;;;;;13.29;100.00;102125.06;6216440;23;20027;-77
2022/01/01 13:17:24;;;;;;;1.42;0.95;;;;;;;13.32;100.00;102132.97;6216941;23;20103;-78
2022/01/01 13:19:53;;;;;;;3.22;1.35;;;;;;;13.49;100.00;102130.59;6216755;23;20016;-78
2022/01/01 13:22:32;;;;;;;2.17;0.75;;;;;;;13.55;100.00;102125.06;6232825;23;20320;-77
2022/01/01 13:24:57;;;;;;;7.50;2.00;;;;;;;13.55;100.00;102119.72;6247359;23;20000;-77
2022/01/01 13:27:27;;;;;;;3.13;1.20;;;;;;;13.59;100.00;102121.34;6247131;23;20289;-78
2022/01/01 13:29:53;;;;;;;;;;;;;;;13.56;100.00;102129.47;6247944;23;20026;-78
2022/01/01 13:32:18;;;;;;;1.15;0.70;;;;;;;13.44;100.00;102130.75;6247614;23;19911;-78
2022/01/01 13:34:52;;;;;;;1.40;0.82;;;;;;;13.30;100.00;102113.50;6245985;23;20455;-78
2022/01/01 13:37:23;;;;;;;0.82;0.55;;;;;;;13.24;100.00;102090.53;6247625;23;20103;-77
2022/01/01 13:39:48;;;;;;;1.20;0.98;;;;;;;13.14;100.00;102091.75;6246843;23;20024;-76
2022/01/01 13:42:19;;;;;;;3.50;0.80;;;;;;;13.15;100.00;102088.19;6246576;23;20011;-76
2022/01/01 13:44:45;;;;;;;1.73;0.80;;;;;;;13.15;100.00;102098.84;6246169;23;20005;-77
2022/01/01 13:47:14;;;;;;;0.95;0.70;;;;;;;13.10;100.00;102099.91;6247448;23;20046;-77
2022/01/01 13:49:45;;;;;;;1.75;0.60;;;;;;;13.18;100.00;102101.44;6247751;23;20004;-78
2022/01/01 13:52:20;;;;;;;1.75;1.15;;;;;;;13.10;100.00;102099.91;6247826;23;20004;-77
2022/01/01 13:54:46;;;;;;;1.63;0.70;;;;;;;13.03;100.00;102096.56;6247199;23;20429;-77
2022/01/01 13:57:11;;;;;;;1.60;1.35;;;;;;;12.96;100.00;102099.47;6247273;23;20015;-77
2022/01/01 13:59:39;;;;;;;1.05;0.63;;;;;;;13.03;100.00;102098.41;6246638;23;20405;-78
2022/01/01 14:02:06;;;;;;;1.35;0.77;;;;;;;13.00;100.00;102098.47;6247136;23;20004;-77
2022/01/01 14:04:36;;;;;;;2.00;0.75;;;;;;;13.02;100.00;102089.50;6246289;23;20005;-77
2022/01/01 14:07:03;;;;;;;1.02;0.63;;;;;;;12.92;100.00;102089.84;6246959;23;20008;-78
2022/01/01 14:09:29;;;;;;;0.93;0.63;;;;;;;12.97;100.00;102098.56;6246429;23;20004;-78
2022/01/01 14:11:55;;;;;;;0.90;0.70;;;;;;;12.96;100.00;102089.69;6246615;23;20019;-76
2022/01/01 14:14:27;;;;;;;2.55;1.10;;;;;;;12.89;100.00;102097.94;6246669;23;20008;-77
2022/01/01 14:16:53;;;;;;;1.23;0.73;;;;;;;12.91;100.00;102080.97;6247716;23;20004;-76
2022/01/01 14:19:20;;;;;;;1.17;0.80;;;;;;;12.88;100.00;102091.72;6246919;23;20008;-77
2022/01/01 14:21:49;;;;;;;1.23;0.73;;;;;;;12.86;100.00;102088.22;6246165;23;20012;-77
2022/01/01 14:24:19;;;;;;;1.40;0.93;;;;;;;12.95;100.00;102095.06;6246945;23;20113;-78
2022/01/01 14:26:47;;;;;;;1.42;0.90;;;;;;;13.00;100.00;102098.47;6247063;23;20011;-79
2022/01/01 14:29:14;;;;;;;1.63;1.02;;;;;;;12.97;100.00;102099.41;6247614;23;20027;-81
2022/01/01 14:31:42;;;;;;;2.90;0.73;;;;;;;12.95;100.00;102101.25;6247360;23;20424;-80
2022/01/01 14:34:18;;;;;;;1.10;0.60;;;;;;;13.02;100.00;102100.19;6247398;22;20008;-79
2022/01/01 14:36:48;;;;;;;1.40;1.30;;;;;;;13.02;100.00;102107.31;6248197;23;19997;-78
2022/01/01 14:39:15;;;;;;;1.30;1.10;;;;;;;12.97;100.00;102098.56;6247463;22;19999;-81
2022/01/01 14:41:41;;;;;;;1.25;0.63;;;;;;;13.00;100.00;102098.47;6247631;23;20004;-81
2022/01/01 14:44:07;;;;;;;5.70;1.85;;;;;;;12.96;100.00;102107.47;6246357;23;20035;-80
2022/01/01 14:46:37;;;;;;;7.68;0.77;;;;;;;12.92;100.00;102105.84;6247009;23;20353;-81
2022/01/01 14:49:25;;;;;;;;;;;;;;;12.96;100.00;102102.13;6248446;23;20424;-80